Polar Endurance — WDG2085 — position and weather

sailwx.info

Track history (hours):
 
Tides and Currents Weather Stations Pressure Air Temp Water Temp Dewpoint Dewpoint Depression Visibility Wind Speed Wind Dir Waves Ship Positions

Polar Endurance

Owner: Dunlap Towing Co., LaConner, WA. More information available from US FCC via Universal Licensing System and Coast Guard Vessel Documentation Center.

Last reported at 2015-May-28 06:32 UTC. Time now 2015-May-28 18:14 UTC.
Position N 58°15' W 136°03'.

Length 37 m.

Type: Towing. MMSI: 303144000.

Date/timePositionNaut miles runAvg speedWind from/ knotsBaromVisibWave heightAir tempDewpointWater temp
2015-May-28 06:32N 58°15' W 136°03'9 9.2
2015-May-28 05:33N 58°18' W 135°47'9 9.0
2015-May-28 04:31N 58°15' W 135°30'  
2015-May-24 20:31N 51°24' W 128°02'17 8.4
2015-May-24 18:26N 51°09' W 127°50'8 9.2
2015-May-24 17:33N 51°03' W 127°40'9 9.4
2015-May-24 16:33N 50°57' W 127°29'10 9.6
2015-May-24 15:33N 50°52' W 127°16'9 9.4
2015-May-24 14:33N 50°47' W 127°04'10 9.0
2015-May-24 13:27N 50°40' W 126°51'8 8.8
2015-May-24 12:30N 50°35' W 126°42'8 8.4
2015-May-24 11:32N 50°30' W 126°31'88 7.1
2015-May-23 23:11N 49°41' W 124°37'16 9.7
2015-May-23 21:32N 49°32' W 124°17'13 9.8
2015-May-23 20:13N 49°25' W 123°60'7 9.5
2015-May-23 19:29N 49°22' W 123°50'12 9.0
2015-May-23 18:09N 49°14' W 123°36'5 9.1
2015-May-23 17:33N 49°11' W 123°30'9 9.3
2015-May-23 16:33N 49°04' W 123°20'9 9.2
2015-May-23 15:33N 48°58' W 123°10'9 9.2
2015-May-23 14:33N 48°52' W 122°59'9 9.3
2015-May-23 13:33N 48°46' W 122°48'8 8.3
2015-May-23 12:33N 48°39' W 122°43'2 8.2
2015-May-23 12:20N 48°37' W 122°45'7 8.4
2015-May-23 11:33N 48°30' W 122°44'9 8.4
2015-May-23 10:32N 48°22' W 122°45'8 8.6
2015-May-23 09:33N 48°14' W 122°48'1110.9
2015-May-23 08:30N 48°04' W 122°38'910.8
2015-May-23 07:38N 47°57' W 122°30'111.2
2015-May-23 07:33N 47°56' W 122°29'1010.0
2015-May-23 06:33N 47°46' W 122°25'0 9.2
2015-May-23 06:32N 47°46' W 122°25'2 6.8
2015-May-23 06:12N 47°44' W 122°26'6 8.8
2015-May-23 05:33N 47°38' W 122°26'4 3.8
2015-May-23 04:32N 47°35' W 122°22'0 0.1
2015-May-23 04:11N 47°35' W 122°22'0 0.1
2015-May-23 03:33N 47°35' W 122°22'0 0.0
2015-May-23 03:31N 47°35' W 122°22'0 0.4
2015-May-23 02:33N 47°35' W 122°21'0 0.0
2015-May-23 02:31N 47°35' W 122°21'0 0.0
2015-May-23 01:27N 47°35' W 122°21'0 0.1
2015-May-23 01:19N 47°35' W 122°21'0 0.0
2015-May-23 00:33N 47°35' W 122°21'0 0.0
2015-May-23 00:29N 47°35' W 122°21'0 0.0
2015-May-22 23:33N 47°35' W 122°21'0 0.0
2015-May-22 23:29N 47°35' W 122°21'0 0.0
2015-May-22 22:33N 47°35' W 122°21'0 0.0
2015-May-22 22:28N 47°35' W 122°21'0 0.1
2015-May-22 21:33N 47°35' W 122°21'0 4.7
2015-May-22 21:29N 47°36' W 122°22'1010.9
2015-May-22 20:33N 47°45' W 122°25'054.0
2015-May-22 20:33N 47°45' W 122°25'1312.5
2015-May-22 19:33N 47°57' W 122°19'4 4.5
2015-May-22 18:33N 47°59' W 122°13'0 0.0
2015-May-22 17:25N 47°59' W 122°13'  
Track history (hours):
 
Tides and Currents Weather Stations Pressure Air Temp Water Temp Dewpoint Dewpoint Depression Visibility Wind Speed Wind Dir Waves Ship Positions

Polar Endurance

Owner: Dunlap Towing Co., LaConner, WA. More information available from US FCC via Universal Licensing System and Coast Guard Vessel Documentation Center.

Last reported at 2015-May-28 06:32 UTC. Time now 2015-May-28 18:14 UTC.
Position N 58°15' W 136°03'.

Length 37 m.

Type: Towing. MMSI: 303144000.

Date/timePositionNaut miles runAvg speedWind from/ knotsBaromVisibWave heightAir tempDewpointWater temp
2015-May-28 06:32N 58°15' W 136°03'9 9.2
2015-May-28 05:33N 58°18' W 135°47'9 9.0
2015-May-28 04:31N 58°15' W 135°30'  
2015-May-24 20:31N 51°24' W 128°02'17 8.4
2015-May-24 18:26N 51°09' W 127°50'8 9.2
2015-May-24 17:33N 51°03' W 127°40'9 9.4
2015-May-24 16:33N 50°57' W 127°29'10 9.6
2015-May-24 15:33N 50°52' W 127°16'9 9.4
2015-May-24 14:33N 50°47' W 127°04'10 9.0
2015-May-24 13:27N 50°40' W 126°51'8 8.8
2015-May-24 12:30N 50°35' W 126°42'8 8.4
2015-May-24 11:32N 50°30' W 126°31'88 7.1
2015-May-23 23:11N 49°41' W 124°37'16 9.7
2015-May-23 21:32N 49°32' W 124°17'13 9.8
2015-May-23 20:13N 49°25' W 123°60'7 9.5
2015-May-23 19:29N 49°22' W 123°50'12 9.0
2015-May-23 18:09N 49°14' W 123°36'5 9.1
2015-May-23 17:33N 49°11' W 123°30'9 9.3
2015-May-23 16:33N 49°04' W 123°20'9 9.2
2015-May-23 15:33N 48°58' W 123°10'9 9.2
2015-May-23 14:33N 48°52' W 122°59'9 9.3
2015-May-23 13:33N 48°46' W 122°48'8 8.3
2015-May-23 12:33N 48°39' W 122°43'2 8.2
2015-May-23 12:20N 48°37' W 122°45'7 8.4
2015-May-23 11:33N 48°30' W 122°44'9 8.4
2015-May-23 10:32N 48°22' W 122°45'8 8.6
2015-May-23 09:33N 48°14' W 122°48'1110.9
2015-May-23 08:30N 48°04' W 122°38'910.8
2015-May-23 07:38N 47°57' W 122°30'111.2
2015-May-23 07:33N 47°56' W 122°29'1010.0
2015-May-23 06:33N 47°46' W 122°25'0 9.2
2015-May-23 06:32N 47°46' W 122°25'2 6.8
2015-May-23 06:12N 47°44' W 122°26'6 8.8
2015-May-23 05:33N 47°38' W 122°26'4 3.8
2015-May-23 04:32N 47°35' W 122°22'0 0.1
2015-May-23 04:11N 47°35' W 122°22'0 0.1
2015-May-23 03:33N 47°35' W 122°22'0 0.0
2015-May-23 03:31N 47°35' W 122°22'0 0.4
2015-May-23 02:33N 47°35' W 122°21'0 0.0
2015-May-23 02:31N 47°35' W 122°21'0 0.0
2015-May-23 01:27N 47°35' W 122°21'0 0.1
2015-May-23 01:19N 47°35' W 122°21'0 0.0
2015-May-23 00:33N 47°35' W 122°21'0 0.0
2015-May-23 00:29N 47°35' W 122°21'0 0.0
2015-May-22 23:33N 47°35' W 122°21'0 0.0
2015-May-22 23:29N 47°35' W 122°21'0 0.0
2015-May-22 22:33N 47°35' W 122°21'0 0.0
2015-May-22 22:28N 47°35' W 122°21'0 0.1
2015-May-22 21:33N 47°35' W 122°21'0 4.7
2015-May-22 21:29N 47°36' W 122°22'1010.9
2015-May-22 20:33N 47°45' W 122°25'054.0
2015-May-22 20:33N 47°45' W 122°25'1312.5
2015-May-22 19:33N 47°57' W 122°19'4 4.5
2015-May-22 18:33N 47°59' W 122°13'0 0.0
2015-May-22 17:25N 47°59' W 122°13'  

Dump ship's entire track history